الصفحة الرئيسية
METAR-TAF:

METAR-TAF

مطار :

بولا, كرواتيا

دائرة عرض: 44-54N, خط طول: 013-55E, ارتفاع: 63 متر

مراقبة الطقس الحالي

تاريخ ووقت الإصدار 25 دقيقة قبل الساعة 05:30UTC
ريح 8 عقدة من الشمال الشرقي
درجة الحرارة 13°درجة مئوية
الرطوبة 44%
ضغط 1024 hPa
الرؤية 10 كم أو أكثر
الغيوم لا تقل 1500 م ولا وجود لمزنة ركامية السحاب الأسود

METAR: LDPL 060530Z 04008KT CAVOK 13/01 Q1024 NOSIG

زمن: 07:55 (05:55 UTC)

توقعات

تاريخ ووقت الإصدار 30 دقيقة قبل الساعة 05:25UTC
التوقعات صالحة من06 الساعة 06 UTC إلى 07 الساعة 06 UTC
ريح 12 عقدة من الشرق/الشمال الشرقي
الرؤية 10 كم أو أكثر
الغيوم لا تقل 1500 م ولا وجود لمزنة ركامية السحاب الأسود
مؤقت
من 06 الساعة 13 UTC إلى 06 الساعة 18 UTC
ريح 6 عقدة من الغرب

TAF: LDPL 060525Z 0606/0706 06012KT CAVOK TX20/0613Z TN10/0705Z TEMPO 0613/0618 27006KT

أرصاد الطقس والتوقعات من أكثر من 4000 مطار (تقارير الطقس للمطار METAR والتنبؤ بالطقس بالمطارTAF).

المحطات المتاحة هي النقط الصفراء والحمراء على الخريطة.

حرك المؤشر فوق النقطة لمعرفة اسم المحطة.

ثم انقر لمعرفة أرصاد وتوقعات الطقس.

لتغيير الخارطة: اضغط على الأزرار الخضراء مع رمز الصليب الأسود للتكبير. على الزر الأخضر مع شرطة للتصغير، أو على الأسهم الخضراء للخرائط المجاورة.


METAR-TAF: